Terminal Aerodrome Forecast
Issued by NWS

Home | Current Version | Previous Version | Text Only | Print | Product List | Glossary On
Versions: 1 2 3 4 5 6 7 8 9 10 11 12 13 14 15 16
000
FTUS46 KSGX 202300
TAFSNA
TAF
KSNA 202325Z 2100/2124 VRB05KT P6SM FEW019 FEW250
     FM210400 VRB03KT P6SM OVC017
     FM211700 VRB05KT P6SM SCT019
     FM212100 23008KT P6SM SKC=

USA.gov is the U.S. government's official web portal to all federal, state and local government web resources and services.